createdAt,value
2023-04-01T00:02:01.650Z,13.76
2023-04-01T00:04:29.494Z,13.68
2023-04-01T00:06:56.937Z,13.52
2023-04-01T00:09:24.426Z,13.72
2023-04-01T00:11:52.159Z,13.63
2023-04-01T00:14:19.659Z,13.57
2023-04-01T00:16:47.163Z,13.57
2023-04-01T00:19:16.095Z,13.63
2023-04-01T00:21:43.450Z,13.65
2023-04-01T00:24:10.803Z,13.66
2023-04-01T00:26:38.558Z,13.72
2023-04-01T00:29:06.497Z,13.52
2023-04-01T00:31:33.969Z,13.55
2023-04-01T00:34:01.743Z,13.52
2023-04-01T00:36:29.554Z,13.54
2023-04-01T00:38:59.804Z,13.48
2023-04-01T00:41:27.518Z,13.38
2023-04-01T00:44:22.014Z,13.47
2023-04-01T00:46:49.811Z,13.44
2023-04-01T00:49:19.549Z,13.36
2023-04-01T00:51:49.178Z,13.39
2023-04-01T00:54:17.730Z,13.39
2023-04-01T00:56:51.045Z,13.45
2023-04-01T00:59:24.610Z,13.43
2023-04-01T01:01:52.328Z,13.40
2023-04-01T01:04:26.468Z,13.47
2023-04-01T01:07:31.650Z,13.46
2023-04-01T01:10:15.842Z,13.71
2023-04-01T01:12:46.329Z,13.57
2023-04-01T01:15:18.963Z,13.44
2023-04-01T01:17:49.038Z,13.47
2023-04-01T01:20:43.166Z,13.46
2023-04-01T01:23:22.840Z,13.40
2023-04-01T01:26:08.548Z,13.36
2023-04-01T01:28:44.871Z,13.31
2023-04-01T01:31:18.488Z,13.41
2023-04-01T01:34:12.421Z,13.41
2023-04-01T01:36:41.445Z,13.40
2023-04-01T01:39:09.725Z,13.34
2023-04-01T01:41:39.215Z,13.23
2023-04-01T01:44:08.228Z,13.28
2023-04-01T01:46:36.543Z,13.27
2023-04-01T01:49:04.937Z,13.28
2023-04-01T01:51:32.731Z,13.18
2023-04-01T01:54:00.521Z,13.39
2023-04-01T01:56:29.500Z,13.36
2023-04-01T01:59:04.612Z,13.33
2023-04-01T02:01:34.532Z,13.31
2023-04-01T02:04:03.730Z,13.29
2023-04-01T02:06:33.877Z,13.23
2023-04-01T02:09:04.021Z,13.29
2023-04-01T02:11:46.623Z,13.30
2023-04-01T02:14:16.887Z,13.38
2023-04-01T02:17:13.005Z,13.23
2023-04-01T02:19:47.441Z,13.12
2023-04-01T02:22:19.487Z,13.10
2023-04-01T02:24:47.278Z,13.22
2023-04-01T02:27:14.651Z,13.30
2023-04-01T02:29:42.108Z,13.26
2023-04-01T02:32:10.363Z,13.18
2023-04-01T02:34:38.362Z,13.16
2023-04-01T02:37:05.772Z,13.11
2023-04-01T02:39:33.487Z,13.22
2023-04-01T02:42:01.312Z,13.15
2023-04-01T02:44:30.082Z,13.08
2023-04-01T02:46:57.936Z,13.03
2023-04-01T02:49:25.958Z,13.04
2023-04-01T02:51:53.396Z,13.08
2023-04-01T02:54:21.138Z,13.06
2023-04-01T02:56:48.559Z,12.97
2023-04-01T02:59:16.062Z,13.01
2023-04-01T03:01:43.816Z,12.93
2023-04-01T03:04:11.194Z,12.94
2023-04-01T03:06:38.567Z,12.89
2023-04-01T03:09:06.272Z,12.88
2023-04-01T03:11:33.646Z,12.78
2023-04-01T03:14:01.059Z,12.85
2023-04-01T03:16:28.927Z,12.78
2023-04-01T03:18:59.841Z,12.71
2023-04-01T03:21:27.527Z,12.78
2023-04-01T03:23:55.387Z,12.44
2023-04-01T03:26:22.813Z,12.58
2023-04-01T03:28:50.316Z,12.46
2023-04-01T03:31:18.025Z,12.52
2023-04-01T03:33:45.922Z,12.53
2023-04-01T03:36:13.884Z,12.44
2023-04-01T03:38:42.624Z,12.49
2023-04-01T03:41:14.334Z,12.46
2023-04-01T03:43:42.539Z,12.39
2023-04-01T03:46:10.604Z,12.41
2023-04-01T03:48:38.183Z,12.23
2023-04-01T03:51:09.368Z,12.27
2023-04-01T03:53:37.003Z,12.31
2023-04-01T03:56:07.071Z,12.28
2023-04-01T03:58:36.062Z,12.30
2023-04-01T04:01:03.715Z,12.29
2023-04-01T04:03:31.829Z,12.27
2023-04-01T04:05:59.492Z,12.23
2023-04-01T04:08:26.898Z,12.28
2023-04-01T04:10:57.822Z,12.18
2023-04-01T04:13:25.728Z,12.11
2023-04-01T04:15:55.658Z,11.99
2023-04-01T04:18:23.370Z,11.97
2023-04-01T04:20:52.168Z,12.08
2023-04-01T04:23:20.268Z,11.99
2023-04-01T04:25:59.077Z,11.85
2023-04-01T04:28:27.954Z,11.90
2023-04-01T04:30:57.058Z,11.88
2023-04-01T04:33:25.427Z,11.83
2023-04-01T04:35:56.171Z,11.74
2023-04-01T04:38:24.081Z,11.83
2023-04-01T04:40:51.513Z,11.69
2023-04-01T04:43:19.743Z,11.85
2023-04-01T04:45:47.214Z,11.51
2023-04-01T04:48:21.150Z,11.78
2023-04-01T04:50:50.832Z,11.76
2023-04-01T04:53:19.769Z,11.65
2023-04-01T04:55:48.689Z,11.76
2023-04-01T04:58:17.840Z,11.80
2023-04-01T05:00:46.225Z,11.88
2023-04-01T05:03:16.663Z,11.81
2023-04-01T05:05:51.385Z,11.80
2023-04-01T05:08:19.094Z,11.96
2023-04-01T05:10:48.139Z,11.86
2023-04-01T05:13:15.817Z,11.81
2023-04-01T05:15:43.820Z,11.91
2023-04-01T05:18:11.273Z,11.88
2023-04-01T05:20:38.939Z,12.05
2023-04-01T05:23:06.735Z,12.17
2023-04-01T05:25:34.345Z,12.11
2023-04-01T05:28:02.814Z,12.35
2023-04-01T05:30:30.997Z,12.31
2023-04-01T05:32:59.056Z,12.33
2023-04-01T05:35:26.560Z,12.46
2023-04-01T05:37:54.338Z,12.65
2023-04-01T05:40:22.031Z,12.91
2023-04-01T05:42:49.447Z,12.94
2023-04-01T05:45:17.394Z,13.05
2023-04-01T05:47:45.507Z,13.06
2023-04-01T05:50:12.966Z,12.93
2023-04-01T05:52:40.819Z,12.93
2023-04-01T05:55:08.687Z,12.98
2023-04-01T05:57:36.231Z,12.81
2023-04-01T06:00:05.687Z,12.88
2023-04-01T06:02:40.203Z,12.94
2023-04-01T06:05:29.216Z,13.02
2023-04-01T06:08:00.378Z,13.24
2023-04-01T06:10:51.768Z,13.34
2023-04-01T06:13:38.023Z,13.33
2023-04-01T06:16:10.686Z,13.60
2023-04-01T06:19:06.401Z,13.98
2023-04-01T06:22:05.626Z,13.72
2023-04-01T06:24:52.465Z,13.75
2023-04-01T06:27:48.351Z,14.13
2023-04-01T06:30:39.700Z,14.10
2023-04-01T06:33:31.175Z,14.36
2023-04-01T06:36:05.492Z,14.28
2023-04-01T06:38:48.502Z,14.34
2023-04-01T06:41:30.726Z,14.34
2023-04-01T06:44:00.913Z,14.32
2023-04-01T06:46:34.780Z,14.52
2023-04-01T06:49:09.911Z,14.80
2023-04-01T06:51:59.395Z,14.64
2023-04-01T06:54:39.807Z,14.21
2023-04-01T06:57:42.475Z,14.25
2023-04-01T07:00:34.645Z,14.74
2023-04-01T07:03:18.156Z,13.84
2023-04-01T07:05:46.301Z,14.11
2023-04-01T07:08:19.578Z,13.60
2023-04-01T07:11:02.977Z,14.16
2023-04-01T07:13:41.921Z,14.01
2023-04-01T07:16:16.909Z,14.25
2023-04-01T07:18:49.736Z,14.57
2023-04-01T07:21:50.377Z,14.38
2023-04-01T07:24:39.090Z,14.18
2023-04-01T07:27:11.307Z,14.74
2023-04-01T07:29:38.974Z,14.46
2023-04-01T07:32:26.787Z,14.22
2023-04-01T07:35:08.717Z,14.32
2023-04-01T07:37:43.738Z,14.66
2023-04-01T07:40:20.397Z,14.70
2023-04-01T07:43:16.803Z,14.98
2023-04-01T07:46:02.024Z,14.91
2023-04-01T07:48:48.126Z,15.17
2023-04-01T07:51:21.265Z,15.25
2023-04-01T07:53:52.316Z,14.88
2023-04-01T07:56:31.342Z,15.14
2023-04-01T07:59:11.441Z,15.07
2023-04-01T08:02:03.859Z,14.62
2023-04-01T08:04:51.169Z,14.82
2023-04-01T08:07:21.914Z,14.74
2023-04-01T08:10:09.479Z,14.60
2023-04-01T08:13:00.542Z,14.63
2023-04-01T08:15:58.987Z,14.60
2023-04-01T08:18:59.015Z,14.99
2023-04-01T08:21:30.023Z,14.76
2023-04-01T08:23:59.248Z,14.78
2023-04-01T08:26:43.766Z,14.69
2023-04-01T08:29:13.033Z,15.14
2023-04-01T08:32:09.758Z,15.02
2023-04-01T08:34:42.599Z,15.03
2023-04-01T08:37:18.461Z,14.73
2023-04-01T08:39:53.665Z,14.76
2023-04-01T08:42:51.452Z,14.56
2023-04-01T08:45:31.670Z,14.66
2023-04-01T08:48:30.920Z,14.53
2023-04-01T08:51:35.990Z,15.07
2023-04-01T08:54:14.150Z,14.79
2023-04-01T08:56:55.191Z,14.87
2023-04-01T08:59:44.032Z,14.84
2023-04-01T09:02:52.463Z,14.87
2023-04-01T09:05:39.410Z,14.99
2023-04-01T09:08:39.810Z,14.71
2023-04-01T09:11:29.498Z,15.05
2023-04-01T09:14:22.968Z,15.30
2023-04-01T09:17:01.213Z,14.90
2023-04-01T09:19:47.338Z,14.96
2023-04-01T09:22:52.750Z,15.25
2023-04-01T09:25:24.489Z,15.29
2023-04-01T09:27:55.487Z,14.99
2023-04-01T09:30:42.475Z,15.00
2023-04-01T09:33:52.100Z,15.03
2023-04-01T09:36:54.108Z,14.96
2023-04-01T09:39:30.877Z,14.84
2023-04-01T09:42:08.978Z,15.04
2023-04-01T09:44:50.266Z,15.21
2023-04-01T09:47:29.066Z,15.23
2023-04-01T09:50:07.953Z,14.74
2023-04-01T09:53:05.690Z,14.37
2023-04-01T09:56:08.891Z,14.10
2023-04-01T09:59:03.253Z,14.44
2023-04-01T10:01:44.090Z,14.74
2023-04-01T10:04:34.148Z,14.74
2023-04-01T10:07:29.213Z,14.95
2023-04-01T10:10:09.330Z,14.77
2023-04-01T10:13:04.614Z,14.69
2023-04-01T10:15:52.057Z,14.41
2023-04-01T10:18:19.977Z,14.60
2023-04-01T10:21:19.815Z,14.73
2023-04-01T10:23:50.851Z,15.06
2023-04-01T10:26:50.235Z,14.65
2023-04-01T10:29:43.139Z,14.90
2023-04-01T10:32:22.938Z,14.70
2023-04-01T10:35:29.128Z,14.62
2023-04-01T10:37:56.795Z,15.06
2023-04-01T10:40:38.826Z,15.10
2023-04-01T10:43:40.248Z,15.23
2023-04-01T10:46:41.355Z,15.14
2023-04-01T10:49:25.238Z,15.63
2023-04-01T10:52:30.055Z,15.65
2023-04-01T10:55:13.761Z,16.15
2023-04-01T10:58:12.168Z,15.71
2023-04-01T11:01:05.709Z,15.97
2023-04-01T11:04:00.087Z,16.37
2023-04-01T11:06:37.733Z,16.41
2023-04-01T11:09:31.701Z,16.29
2023-04-01T11:12:24.802Z,16.33
2023-04-01T11:14:55.455Z,16.32
2023-04-01T11:17:31.849Z,16.27
2023-04-01T11:20:28.449Z,16.08
2023-04-01T11:23:10.634Z,16.10
2023-04-01T11:26:06.024Z,16.15
2023-04-01T11:28:58.554Z,16.15
2023-04-01T11:31:32.869Z,16.36
2023-04-01T11:34:24.460Z,16.62
2023-04-01T11:37:40.174Z,16.85
2023-04-01T11:40:28.184Z,16.76
2023-04-01T11:43:06.556Z,16.73
2023-04-01T11:45:51.864Z,16.72
2023-04-01T11:48:53.859Z,16.44
2023-04-01T11:51:21.775Z,16.34
2023-04-01T11:54:11.632Z,16.51
2023-04-01T11:57:00.888Z,16.49
2023-04-01T11:59:41.258Z,16.00
2023-04-01T12:02:13.378Z,16.20
2023-04-01T12:05:03.395Z,16.28
2023-04-01T12:07:49.333Z,16.53
2023-04-01T12:10:20.984Z,16.59
2023-04-01T12:13:06.776Z,16.19
2023-04-01T12:16:16.321Z,16.41
2023-04-01T12:18:49.407Z,16.53
2023-04-01T12:21:35.414Z,16.44
2023-04-01T12:24:16.171Z,16.90
2023-04-01T12:26:49.818Z,17.11
2023-04-01T12:29:35.375Z,17.28
2023-04-01T12:32:29.235Z,17.38
2023-04-01T12:35:16.643Z,17.12
2023-04-01T12:37:53.001Z,16.89
2023-04-01T12:40:58.068Z,16.88
2023-04-01T12:43:46.185Z,16.88
2023-04-01T12:46:54.018Z,16.49
2023-04-01T12:49:36.798Z,16.60
2023-04-01T12:52:05.193Z,16.68
2023-04-01T12:54:48.016Z,16.46
2023-04-01T12:57:25.684Z,16.74
2023-04-01T13:00:12.223Z,16.53
2023-04-01T13:03:07.596Z,16.58
2023-04-01T13:05:41.294Z,16.57
2023-04-01T13:08:14.766Z,16.79
2023-04-01T13:11:10.784Z,17.08
2023-04-01T13:14:05.667Z,17.08
2023-04-01T13:16:40.736Z,17.22
2023-04-01T13:19:22.601Z,17.14
2023-04-01T13:22:22.776Z,17.36
2023-04-01T13:25:02.352Z,16.68
2023-04-01T13:28:00.301Z,16.88
2023-04-01T13:30:36.255Z,17.02
2023-04-01T13:33:31.001Z,16.76
2023-04-01T13:36:07.506Z,17.15
2023-04-01T13:38:54.819Z,17.33
2023-04-01T13:41:30.433Z,17.27
2023-04-01T13:44:22.560Z,17.04
2023-04-01T13:47:21.243Z,16.95
2023-04-01T13:50:08.781Z,16.60
2023-04-01T13:52:45.434Z,16.44
2023-04-01T13:55:31.280Z,16.47
2023-04-01T13:58:13.610Z,15.85
2023-04-01T14:00:53.183Z,15.85
2023-04-01T14:03:46.090Z,15.95
2023-04-01T14:06:32.460Z,15.73
2023-04-01T14:09:27.590Z,15.32
2023-04-01T14:12:10.632Z,15.29
2023-04-01T14:14:57.041Z,15.57
2023-04-01T14:17:50.977Z,15.65
2023-04-01T14:20:24.133Z,16.21
2023-04-01T14:23:22.515Z,16.22
2023-04-01T14:25:50.067Z,15.81
2023-04-01T14:28:42.761Z,15.30
2023-04-01T14:31:16.467Z,15.90
2023-04-01T14:34:02.216Z,16.10
2023-04-01T14:36:44.805Z,16.02
2023-04-01T14:39:30.744Z,15.85
2023-04-01T14:42:24.520Z,15.98
2023-04-01T14:45:09.834Z,16.00
2023-04-01T14:48:01.053Z,16.34
2023-04-01T14:50:30.682Z,16.49
2023-04-01T14:53:39.878Z,16.60
2023-04-01T14:56:07.337Z,16.86
2023-04-01T14:58:47.091Z,16.46
2023-04-01T15:01:17.459Z,16.65
2023-04-01T15:03:54.260Z,16.75
2023-04-01T15:06:46.077Z,16.35
2023-04-01T15:09:32.114Z,16.47
2023-04-01T15:12:13.921Z,16.23
2023-04-01T15:14:50.806Z,16.25
2023-04-01T15:17:24.189Z,16.40
2023-04-01T15:20:11.265Z,16.65
2023-04-01T15:22:47.836Z,16.51
2023-04-01T15:25:23.635Z,16.66
2023-04-01T15:28:00.846Z,16.19
2023-04-01T15:30:46.732Z,16.21
2023-04-01T15:33:26.401Z,16.13
2023-04-01T15:36:15.419Z,15.81
2023-04-01T15:38:48.867Z,15.70
2023-04-01T15:41:17.948Z,15.89
2023-04-01T15:43:50.032Z,15.96
2023-04-01T15:46:20.718Z,16.24
2023-04-01T15:49:26.539Z,16.23
2023-04-01T15:52:13.174Z,16.28
2023-04-01T15:54:40.563Z,16.48
2023-04-01T15:57:15.592Z,16.66
2023-04-01T15:59:55.967Z,16.66
2023-04-01T16:03:01.632Z,16.90
2023-04-01T16:06:01.394Z,16.88
2023-04-01T16:09:00.044Z,16.56
2023-04-01T16:11:49.366Z,16.97
2023-04-01T16:14:31.014Z,16.73
2023-04-01T16:17:30.725Z,16.62
2023-04-01T16:20:10.670Z,16.42
2023-04-01T16:22:55.990Z,16.53
2023-04-01T16:25:35.150Z,16.35
2023-04-01T16:28:32.308Z,16.62
2023-04-01T16:30:59.697Z,16.84
2023-04-01T16:33:42.168Z,16.51
2023-04-01T16:36:23.853Z,16.77
2023-04-01T16:39:24.802Z,16.99
2023-04-01T16:42:07.268Z,16.98
2023-04-01T16:44:57.156Z,16.59
2023-04-01T16:47:32.339Z,16.88
2023-04-01T16:50:28.985Z,16.55
2023-04-01T16:53:01.752Z,16.71
2023-04-01T16:55:36.709Z,16.84
2023-04-01T16:58:04.265Z,16.79
2023-04-01T17:00:40.493Z,16.75
2023-04-01T17:03:07.824Z,16.81
2023-04-01T17:05:57.757Z,16.95
2023-04-01T17:09:00.338Z,16.81
2023-04-01T17:11:33.146Z,16.81
2023-04-01T17:14:22.311Z,16.81
2023-04-01T17:17:14.696Z,16.66
2023-04-01T17:20:10.098Z,16.61
2023-04-01T17:22:56.594Z,16.54
2023-04-01T17:25:39.452Z,16.61
2023-04-01T17:28:28.306Z,16.59
2023-04-01T17:31:22.634Z,16.53
2023-04-01T17:34:01.317Z,16.60
2023-04-01T17:36:53.644Z,16.49
2023-04-01T17:39:24.512Z,16.41
2023-04-01T17:42:24.425Z,16.38
2023-04-01T17:45:01.179Z,16.25
2023-04-01T17:48:07.050Z,16.17
2023-04-01T17:50:48.790Z,15.97
2023-04-01T17:53:20.732Z,15.94
2023-04-01T17:56:14.875Z,15.86
2023-04-01T17:58:48.384Z,15.78
2023-04-01T18:01:44.109Z,15.78
2023-04-01T18:04:49.096Z,15.78
2023-04-01T18:07:20.069Z,15.79
2023-04-01T18:10:12.303Z,15.70
2023-04-01T18:13:10.734Z,15.45
2023-04-01T18:16:08.056Z,15.46
2023-04-01T18:18:54.883Z,15.59
2023-04-01T18:21:37.934Z,15.22
2023-04-01T18:24:14.398Z,15.50
2023-04-01T18:26:45.544Z,15.50
2023-04-01T18:29:29.269Z,15.22
2023-04-01T18:32:29.852Z,15.16
2023-04-01T18:35:34.798Z,15.30
2023-04-01T18:38:30.758Z,15.17
2023-04-01T18:41:27.964Z,15.11
2023-04-01T18:44:06.179Z,15.04
2023-04-01T18:46:59.389Z,15.02
2023-04-01T18:49:44.397Z,14.81
2023-04-01T18:52:28.631Z,14.74
2023-04-01T18:55:02.354Z,14.78
2023-04-01T18:57:48.820Z,14.73
2023-04-01T19:00:23.628Z,14.75
2023-04-01T19:03:09.797Z,14.52
2023-04-01T19:05:39.852Z,14.41
2023-04-01T19:08:30.739Z,14.38
2023-04-01T19:11:18.550Z,14.42
2023-04-01T19:13:52.121Z,14.33
2023-04-01T19:16:38.580Z,14.39
2023-04-01T19:19:33.692Z,14.44
2023-04-01T19:22:55.898Z,14.25
2023-04-01T19:25:39.185Z,14.06
2023-04-01T19:28:27.165Z,13.99
2023-04-01T19:31:01.050Z,13.91
2023-04-01T19:33:53.095Z,13.99
2023-04-01T19:36:32.663Z,14.03
2023-04-01T19:39:17.114Z,14.23
2023-04-01T19:42:20.012Z,14.06
2023-04-01T19:45:19.586Z,14.06
2023-04-01T19:48:25.965Z,13.98
2023-04-01T19:50:53.705Z,13.81
2023-04-01T19:53:42.243Z,13.88
2023-04-01T19:56:17.982Z,13.74
2023-04-01T19:59:03.842Z,13.70
2023-04-01T20:02:01.457Z,13.71
2023-04-01T20:04:45.292Z,13.88
2023-04-01T20:07:32.713Z,13.75
2023-04-01T20:10:20.453Z,13.69
2023-04-01T20:13:02.706Z,13.68
2023-04-01T20:15:42.593Z,13.64
2023-04-01T20:18:33.834Z,13.72
2023-04-01T20:21:06.507Z,13.70
2023-04-01T20:23:46.415Z,13.48
2023-04-01T20:26:15.281Z,13.52
2023-04-01T20:28:42.616Z,13.58
2023-04-01T20:31:21.492Z,13.65
2023-04-01T20:34:04.517Z,13.66
2023-04-01T20:36:38.232Z,13.77
2023-04-01T20:39:12.313Z,13.56
2023-04-01T20:42:04.041Z,13.53
2023-04-01T20:44:51.253Z,13.46
2023-04-01T20:47:26.245Z,13.22
2023-04-01T20:50:00.405Z,13.34
2023-04-01T20:52:37.518Z,13.38
2023-04-01T20:55:23.411Z,13.52
2023-04-01T20:58:06.529Z,13.51
2023-04-01T21:00:52.607Z,13.51
2023-04-01T21:03:44.327Z,13.48
2023-04-01T21:06:19.069Z,13.40
2023-04-01T21:08:58.618Z,13.45
2023-04-01T21:11:34.314Z,13.39
2023-04-01T21:14:33.339Z,13.45
2023-04-01T21:17:17.411Z,13.25
2023-04-01T21:19:55.175Z,13.19
2023-04-01T21:22:34.984Z,13.27
2023-04-01T21:25:29.372Z,13.23
2023-04-01T21:28:00.022Z,13.15
2023-04-01T21:30:42.366Z,12.88
2023-04-01T21:33:42.950Z,12.68
2023-04-01T21:36:21.177Z,12.57
2023-04-01T21:39:14.011Z,12.56
2023-04-01T21:41:50.706Z,12.30
2023-04-01T21:44:23.403Z,12.44
2023-04-01T21:46:50.642Z,12.13
2023-04-01T21:49:42.970Z,12.34
2023-04-01T21:52:47.330Z,12.42
2023-04-01T21:55:21.192Z,12.41
2023-04-01T21:58:00.800Z,12.28
2023-04-01T22:00:37.750Z,12.35
2023-04-01T22:03:40.880Z,12.54
2023-04-01T22:06:39.514Z,12.51
2023-04-01T22:09:16.182Z,12.68
2023-04-01T22:11:45.954Z,12.43
2023-04-01T22:14:21.247Z,12.53
2023-04-01T22:16:55.063Z,12.67
2023-04-01T22:19:37.338Z,12.67
2023-04-01T22:22:46.461Z,12.76
2023-04-01T22:25:23.947Z,12.69
2023-04-01T22:27:56.896Z,12.68
2023-04-01T22:30:28.574Z,12.55
2023-04-01T22:33:07.102Z,12.67
2023-04-01T22:35:43.267Z,12.57
2023-04-01T22:38:14.385Z,12.29
2023-04-01T22:41:02.504Z,12.39
2023-04-01T22:43:41.389Z,12.37
2023-04-01T22:46:42.289Z,12.24
2023-04-01T22:49:18.655Z,12.07
2023-04-01T22:51:57.955Z,12.08
2023-04-01T22:54:31.351Z,12.10
2023-04-01T22:57:04.916Z,12.07
2023-04-01T22:59:43.628Z,12.11
2023-04-01T23:02:22.920Z,11.97
2023-04-01T23:04:57.110Z,11.94
2023-04-01T23:07:50.189Z,11.99
2023-04-01T23:10:22.477Z,11.75
2023-04-01T23:12:53.370Z,11.83
2023-04-01T23:15:21.411Z,11.74
2023-04-01T23:18:16.976Z,11.70
2023-04-01T23:20:59.713Z,11.95
2023-04-01T23:23:45.546Z,11.56
2023-04-01T23:26:19.621Z,11.90
2023-04-01T23:28:55.120Z,11.72
2023-04-01T23:31:31.745Z,11.58
2023-04-01T23:34:01.947Z,11.69
2023-04-01T23:36:31.446Z,11.40
2023-04-01T23:39:02.123Z,11.53
2023-04-01T23:41:31.573Z,11.24
2023-04-01T23:44:09.320Z,11.37
2023-04-01T23:46:37.715Z,11.40
2023-04-01T23:49:06.759Z,11.48
2023-04-01T23:51:39.975Z,11.25
2023-04-01T23:54:29.668Z,11.36
2023-04-01T23:56:57.626Z,11.48
2023-04-01T23:59:30.785Z,11.13
